F/V Moorea — FMIT — position and weather

sailwx.info

Track history (hours):
 
Tides and Currents Weather Stations Pressure Air Temp Water Temp Dewpoint Dewpoint Depression Visibility Wind Speed Wind Dir Waves Ship Positions

F/V Moorea

Last reported at 2016-May-04 02:33 UTC. Time now 2016-May-04 15:31 UTC.
Position N 46°25' W 002°36'.

Length 18 m.

Type: Fishing. MMSI: 228239900.

Date/timePositionNaut miles runAvg speedWind from/ knotsBaromVisibWave heightAir tempDewpointWater temp
2016-May-04 02:33N 46°25' W 002°36'8 8.3
2016-May-04 01:33N 46°26' W 002°24'8 8.1
2016-May-04 00:31N 46°26' W 002°12'8 8.0
2016-May-03 23:33N 46°27' W 002°01'8 8.0
2016-May-03 22:33N 46°28' W 001°49'2 1.9
2016-May-03 21:33N 46°30' W 001°48'2 1.9
2016-May-03 20:33N 46°28' W 001°49'9 8.6
2016-May-03 19:33N 46°27' W 002°02'43 1.0
2016-May-02 00:33N 47°01' W 002°42'10 9.3
2016-May-01 23:30N 47°10' W 002°38'9 9.4
2016-May-01 22:33N 47°18' W 002°33'2 0.0
2016-Apr-30 00:12N 47°18' W 002°31'4 5.5
2016-Apr-29 23:33N 47°17' W 002°36'15 0.7
2016-Apr-29 00:33N 47°02' W 002°42'10 9.7
2016-Apr-28 23:33N 47°11' W 002°38'9 8.7
2016-Apr-28 22:32N 47°19' W 002°32'1 0.8
2016-Apr-28 21:11N 47°18' W 002°31'2 3.1
2016-Apr-28 20:33N 47°19' W 002°33'20 0.5
2016-Apr-27 01:32N 47°02' W 002°49'9 8.9
2016-Apr-27 00:33N 47°10' W 002°42'10 9.7
2016-Apr-26 23:33N 47°18' W 002°35'4 3.8
2016-Apr-26 22:33N 47°21' W 002°31'5 4.7
2016-Apr-26 21:33N 47°17' W 002°35'8 7.8
2016-Apr-26 20:32N 47°10' W 002°40'12 0.5
2016-Apr-25 22:20N 46°60' W 002°50'810.1
2016-Apr-25 21:33N 47°07' W 002°45'10 9.9
2016-Apr-25 20:33N 47°15' W 002°37'5 5.0
2016-Apr-25 19:33N 47°18' W 002°31'6 5.6
2016-Apr-25 18:31N 47°14' W 002°37'8 8.2
2016-Apr-25 17:33N 47°07' W 002°42'13 0.4
2016-Apr-24 06:33N 46°56' W 002°53'10 9.7
2016-Apr-24 05:33N 47°04' W 002°46'9 9.2
2016-Apr-24 04:33N 47°12' W 002°40'8 8.4
2016-Apr-24 03:33N 47°19' W 002°31'  
Track history (hours):
 
Tides and Currents Weather Stations Pressure Air Temp Water Temp Dewpoint Dewpoint Depression Visibility Wind Speed Wind Dir Waves Ship Positions

F/V Moorea

Last reported at 2016-May-04 02:33 UTC. Time now 2016-May-04 15:31 UTC.
Position N 46°25' W 002°36'.

Length 18 m.

Type: Fishing. MMSI: 228239900.

Date/timePositionNaut miles runAvg speedWind from/ knotsBaromVisibWave heightAir tempDewpointWater temp
2016-May-04 02:33N 46°25' W 002°36'8 8.3
2016-May-04 01:33N 46°26' W 002°24'8 8.1
2016-May-04 00:31N 46°26' W 002°12'8 8.0
2016-May-03 23:33N 46°27' W 002°01'8 8.0
2016-May-03 22:33N 46°28' W 001°49'2 1.9
2016-May-03 21:33N 46°30' W 001°48'2 1.9
2016-May-03 20:33N 46°28' W 001°49'9 8.6
2016-May-03 19:33N 46°27' W 002°02'43 1.0
2016-May-02 00:33N 47°01' W 002°42'10 9.3
2016-May-01 23:30N 47°10' W 002°38'9 9.4
2016-May-01 22:33N 47°18' W 002°33'2 0.0
2016-Apr-30 00:12N 47°18' W 002°31'4 5.5
2016-Apr-29 23:33N 47°17' W 002°36'15 0.7
2016-Apr-29 00:33N 47°02' W 002°42'10 9.7
2016-Apr-28 23:33N 47°11' W 002°38'9 8.7
2016-Apr-28 22:32N 47°19' W 002°32'1 0.8
2016-Apr-28 21:11N 47°18' W 002°31'2 3.1
2016-Apr-28 20:33N 47°19' W 002°33'20 0.5
2016-Apr-27 01:32N 47°02' W 002°49'9 8.9
2016-Apr-27 00:33N 47°10' W 002°42'10 9.7
2016-Apr-26 23:33N 47°18' W 002°35'4 3.8
2016-Apr-26 22:33N 47°21' W 002°31'5 4.7
2016-Apr-26 21:33N 47°17' W 002°35'8 7.8
2016-Apr-26 20:32N 47°10' W 002°40'12 0.5
2016-Apr-25 22:20N 46°60' W 002°50'810.1
2016-Apr-25 21:33N 47°07' W 002°45'10 9.9
2016-Apr-25 20:33N 47°15' W 002°37'5 5.0
2016-Apr-25 19:33N 47°18' W 002°31'6 5.6
2016-Apr-25 18:31N 47°14' W 002°37'8 8.2
2016-Apr-25 17:33N 47°07' W 002°42'13 0.4
2016-Apr-24 06:33N 46°56' W 002°53'10 9.7
2016-Apr-24 05:33N 47°04' W 002°46'9 9.2
2016-Apr-24 04:33N 47°12' W 002°40'8 8.4
2016-Apr-24 03:33N 47°19' W 002°31'  

Dump ship's entire track history